DL8RCB-10 messages


fromtotime message
DH3SF-10 DL8RCB-10 06/25 12:35:09z Reply Ports[2/3] 06-25 12:21:17 144.800 OK 735 745 534 /hr+
DH3SF-10 DL8RCB-10 06/25 12:35:07z Reply Ports[3/3] 06-25 12:17:16 APRS-IS OK 186k 177k 123k /hr
DH3SF-10 DL8RCB-10 06/25 12:35:07z Reply DX=1*F5ZEE(145km@257°)
DH3SF-10 DL8RCB-10 06/25 12:35:07z Reply Ports[2/3] 06-25 12:21:17 144.800 OK 734 745 534 /hr+
DH3SF-10 DL8RCB-10 06/25 12:35:07z Reply DX=4*SM5RVH-3(1154km@21°)
DH3SF-10 DL8RCB-10 06/25 12:35:07z Reply Ports[1/3] 06-25 12:21:16 10.1473 OK 17 64 20 /hr+
HB9ZF-10 DL8RCB-10 06/25 07:52:35z Reply 10.147,30kHz USB RPRS http://robust-packet.net
UA9KDF-14 DL8RCB-10 06/24 11:27:56z Reply UI-View 32 for Mac os via Parallels Desktop , TS-590
UB3AAZ-14 DL8RCB-10 06/24 11:27:46z Reply No status text available.
DL8RCB-10 UB3AAZ-14 06/24 11:27:44z Send another ?APRSS
UA9KDF-14 DL8RCB-10 06/23 20:13:00z Reply uvidel DM8TA{74
DL8RCB-10 UA9KDF-14 06/23 19:17:05z Send another SGate dl8rcb-4{24
DL8RCB-10 UA9KDF-14 06/23 19:16:26z Send another a ja w inet{23
DL8RCB-10 UA9KDF-14 06/23 19:16:16z Send another hb9 tebja mne kinul{22
DL8RCB-10 UA9KDF-14 06/23 19:14:46z Send another daj packet na menja{21
DL8RCB-10 UA9KDF-14 06/23 19:13:03z Send another poprobuj na USA razwernut?{20
DL8RCB-10 UA9KDF-14 06/23 19:12:27z Send another ja tebja opjat prinjal dalnee proxovdenie{19
DL8RCB-10 UA9KDF-14 06/23 19:11:42z Send another a nemzew net{18
DL8RCB-10 UA9KDF-14 06/23 19:11:27z Send another i ty u menja sej4as pojawilsja{17
UA9KDF-14 DL8RCB-10 06/23 19:11:26z Reply dh8hp i dk2ez{73
UA9KDF-14 DL8RCB-10 06/23 19:10:40z Reply u menya dva DE na karte{72
DL8RCB-10 UA9KDF-14 06/23 19:10:37z Send another posol snowa na SGate{16
DL8RCB-10 UA9KDF-14 06/23 19:10:05z Send another malo duri{15
DL8RCB-10 UA9KDF-14 06/23 19:09:48z Send another nu wot wse werno {14
UA9KDF-14 DL8RCB-10 06/23 19:09:24z Reply nivigu{71
DL8RCB-10 UA9KDF-14 06/23 19:09:19z Send another widel?{13
DL8RCB-10 UA9KDF-14 06/23 19:08:54z Send another 10 raz{12
DL8RCB-10 UA9KDF-14 06/23 19:07:35z Send another na4al 10 podrjad{11
DL8RCB-10 UA9KDF-14 06/23 19:07:18z Send another hb9 uwidel{10
DL8RCB-10 UA9KDF-14 06/23 19:07:05z Send another ja gotow{09
DL8RCB-10 UA9KDF-14 06/23 19:04:47z Send another ok podovdi{08
UA9KDF-14 DL8RCB-10 06/23 19:04:32z Reply uiwiew wkluchi{70
DL8RCB-10 UA9KDF-14 06/23 19:04:16z Send another ne mogu tak kak SGate SCS rabotaet{07
UA9KDF-14 DL8RCB-10 06/23 19:04:13z Reply u menya 100 watt + 2 el yagi{69
UA9KDF-14 DL8RCB-10 06/23 19:03:38z Reply pokiday bekany pochashe moget uslyshu{68
DL8RCB-10 UA9KDF-14 06/23 19:03:33z Send another ili twoj 1000 watt PA + 3 elementa yagi{06
DL8RCB-10 UA9KDF-14 06/23 19:02:55z Send another 45 watt + modil + antenna{05
DL8RCB-10 UA9KDF-14 06/23 19:02:25z Send another tak srawnil!{04
UA9KDF-14 DL8RCB-10 06/23 19:01:54z Reply ya tebya na karte ne vigu{67
DL8RCB-10 UA9KDF-14 06/23 18:57:52z Send another SGate SCS Rabotaet{03
DL8RCB-10 UA9KDF-14 06/23 18:57:32z Send another inet{02
DL8RCB-10 UA9KDF-14 06/23 18:57:24z Send another ja tebja xorosho prinimaju i kidaju 4erez{01
DL8RCB-10 UA9KDF-14 06/23 18:56:46z Send another ty wrode spat sobralsja?{00
UA9KDF-14 DL8RCB-10 06/23 16:47:45z Reply Path - DL8RCB-10>APU25N,TCPIP*
DL8RCB-10 UA9KDF-14 06/23 16:47:43z Send another ?APRST
DL8RCB-10 UA9KDF-9 06/19 10:39:40z Send another wivu{00
UA0BA-5 DL8RCB-10 06/04 12:30:04z Reply Hello!{1
UA9KDF-14 DL8RCB-10 06/04 11:54:36z Reply Directs(1)= None
DL8RCB-10 UA9KDF-14 06/04 11:54:35z Send another ?APRSD
DL8RCB-10 UA9KDF-14 06/04 11:54:20z Send another hallo{18
DL8RCB-10 UA0BA-5 06/04 04:47:43z Send another hallo{17
DL8RCB-10 RW6HP-10 05/11 05:43:36z Send another Anatol priwet!{16
DL8RCB-10 UY0LL-1 05/07 17:11:54z Send another Sharik prinimaesn_?{15
DL8RCB-10 UY0LL-1 05/07 17:11:21z Send another hallo{14
UY0LL-1 DL8RCB-10 05/07 17:11:12z Reply UI-View32 V2.03
DL8RCB-4 DL8RCB-10 05/07 11:08:57z Reply 3610.0 USB RPR APRS http:// robust-packet.net
DL8RCB-10 RT9K-10 04/21 04:49:21z Send another ?DX